Terminal Aerodrome Forecast
Issued by NWS Newport/Morehead City, NC

Home | Current Version | Previous Version | Text Only | Print | Product List | Glossary On
Versions: 1 2 3 4 5 6 7 8 9 10 11 12 13 14 15 16 17 18 19 20 21 22 23 24 25 26
000
FTUS42 KMHX 141700 RRA
TAFEWN
TAF
KEWN 141745Z 1418/1518 04009KT P6SM BKN020
     FM142100 04006KT P6SM SCT020 BKN035
     FM150600 02003KT 4SM BR SCT008 BKN020
     FM151300 04005KT P6SM SCT020 BKN040=

USA.gov is the U.S. government's official web portal to all federal, state and local government web resources and services.